Time;durP1;ratioP1;P1;durP2;ratioP2;P2;SDS_P1;SDS_P2;PMS_P1;PMS_P2;Temp;Humidity;BMP_temperature;BMP_pressure;BME280_temperature;BME280_humidity;BME280_pressure;Samples;Min_cycle;Max_cycle;Signal;HPM_P1;HPM_P2
2022/01/02 00:02:17;;;;;;;3.90;1.97;;;12.10;99.90;;;;;;5037272;28;20517;-86
2022/01/02 00:04:48;;;;;;;3.50;1.83;;;12.10;99.90;;;;;;5039557;28;20455;-85
2022/01/02 00:07:16;;;;;;;5.60;2.53;;;12.20;99.90;;;;;;5038978;28;20482;-84
2022/01/02 00:09:46;;;;;;;3.20;1.90;;;12.20;99.90;;;;;;5038522;28;20452;-85
2022/01/02 00:12:17;;;;;;;3.70;1.70;;;12.20;99.90;;;;;;5038999;28;20455;-85
2022/01/02 00:14:46;;;;;;;5.43;2.20;;;12.20;99.90;;;;;;5038620;28;20452;-85
2022/01/02 00:17:16;;;;;;;3.90;2.03;;;12.30;99.90;;;;;;5038596;28;20833;-83
2022/01/02 00:19:52;;;;;;;4.20;1.90;;;12.40;99.90;;;;;;5037191;28;20878;-83
2022/01/02 00:22:22;;;;;;;4.50;2.47;;;12.40;99.90;;;;;;5038333;28;20456;-84
2022/01/02 00:24:49;;;;;;;3.43;1.87;;;12.40;99.90;;;;;;5030311;28;20477;-83
2022/01/02 00:27:16;;;;;;;4.10;2.10;;;12.40;99.90;;;;;;5030327;28;20563;-83
2022/01/02 00:29:45;;;;;;;3.50;2.00;;;12.40;99.90;;;;;;5037371;28;20460;-83
2022/01/02 00:32:13;;;;;;;3.30;2.20;;;12.50;99.90;;;;;;5036985;28;20456;-84
2022/01/02 00:34:41;;;;;;;2.90;2.20;;;12.60;99.90;;;;;;5037779;28;20463;-85
2022/01/02 00:37:09;;;;;;;4.30;2.37;;;12.50;99.90;;;;;;5036273;28;20594;-85
2022/01/02 00:39:36;;;;;;;3.63;2.00;;;12.50;99.90;;;;;;5028421;28;20485;-85
2022/01/02 00:42:10;;;;;;;4.27;2.30;;;12.50;99.90;;;;;;5036601;28;20450;-84
2022/01/02 00:44:51;;;;;;;3.63;1.90;;;12.50;99.90;;;;;;5036984;28;20444;-84
2022/01/02 00:47:24;;;;;;;3.60;2.00;;;12.50;99.90;;;;;;5036938;28;20474;-84
2022/01/02 00:50:04;;;;;;;8.80;2.47;;;12.50;99.90;;;;;;5028677;28;20536;-84
2022/01/02 00:52:33;;;;;;;4.33;2.07;;;12.50;99.90;;;;;;5035784;28;20456;-85
2022/01/02 00:55:00;;;;;;;2.87;2.07;;;12.40;99.90;;;;;;5034402;28;20465;-84
2022/01/02 00:57:34;;;;;;;4.10;1.90;;;12.50;99.90;;;;;;5027049;28;20841;-84
2022/01/02 01:00:08;;;;;;;3.40;1.90;;;12.50;99.90;;;;;;5032430;28;20487;-83
2022/01/02 01:02:38;;;;;;;4.53;2.17;;;12.50;99.90;;;;;;5022727;28;20453;-84
2022/01/02 01:05:08;;;;;;;3.33;1.70;;;12.60;99.90;;;;;;5033667;28;20445;-85
2022/01/02 01:07:35;;;;;;;3.67;2.07;;;12.60;99.90;;;;;;5037029;28;20471;-84
2022/01/02 01:10:03;;;;;;;3.20;2.17;;;12.60;99.90;;;;;;5046023;28;20438;-84
2022/01/02 01:12:30;;;;;;;4.20;2.20;;;12.70;99.90;;;;;;5040102;28;20976;-85
2022/01/02 01:14:58;;;;;;;4.83;2.90;;;12.70;99.90;;;;;;5049670;28;20445;-84
2022/01/02 01:17:26;;;;;;;4.70;3.00;;;12.70;99.90;;;;;;5031891;28;20512;-84
2022/01/02 01:19:53;;;;;;;3.37;2.03;;;12.70;99.90;;;;;;5038742;28;20489;-84
2022/01/02 01:22:21;;;;;;;4.23;2.13;;;12.80;99.90;;;;;;5030128;28;20559;-84
2022/01/02 01:24:48;;;;;;;3.70;2.30;;;12.80;99.90;;;;;;5045267;28;20459;-84
2022/01/02 01:27:14;;;;;;;4.07;2.70;;;12.90;99.90;;;;;;5042769;28;20480;-84
2022/01/02 01:29:41;;;;;;;3.70;2.20;;;12.90;99.90;;;;;;5043742;28;20461;-85
2022/01/02 01:32:09;;;;;;;3.60;1.83;;;13.00;99.90;;;;;;5045722;28;20550;-84
2022/01/02 01:34:39;;;;;;;3.13;2.20;;;12.90;99.90;;;;;;5045131;28;20455;-84
2022/01/02 01:37:05;;;;;;;3.03;2.07;;;12.90;99.90;;;;;;5048002;28;20473;-83
2022/01/02 01:39:32;;;;;;;4.03;1.73;;;13.00;99.90;;;;;;5043185;28;20554;-84
2022/01/02 01:42:07;;;;;;;3.60;2.27;;;13.00;99.90;;;;;;5045475;28;20541;-83
2022/01/02 01:44:52;;;;;;;3.60;1.93;;;13.10;99.90;;;;;;5044066;28;20452;-84
2022/01/02 01:47:20;;;;;;;3.63;1.50;;;13.00;99.90;;;;;;5043049;28;20573;-84
2022/01/02 01:49:48;;;;;;;6.30;2.10;;;13.10;99.90;;;;;;5023214;28;20875;-84
2022/01/02 01:52:15;;;;;;;3.80;2.13;;;13.10;99.90;;;;;;5035696;28;20463;-84
2022/01/02 01:54:41;;;;;;;3.20;1.80;;;13.10;99.90;;;;;;5016284;28;20464;-84
2022/01/02 01:57:08;;;;;;;4.40;2.20;;;13.10;99.90;;;;;;5019479;28;20478;-84
2022/01/02 01:59:35;;;;;;;3.90;1.90;;;13.10;99.90;;;;;;5034511;28;20457;-84
2022/01/02 02:02:02;;;;;;;5.33;2.20;;;13.00;99.90;;;;;;5026370;28;20527;-84
2022/01/02 02:04:29;;;;;;;4.53;2.27;;;13.00;99.90;;;;;;5035736;28;20456;-85
2022/01/02 02:06:59;;;;;;;3.40;2.10;;;13.10;99.90;;;;;;5027928;28;20473;-84
2022/01/02 02:09:32;;;;;;;5.23;2.40;;;13.10;99.90;;;;;;5020159;28;20461;-84
2022/01/02 02:12:00;;;;;;;4.60;1.63;;;13.10;99.90;;;;;;5026990;28;20454;-85
2022/01/02 02:14:27;;;;;;;3.43;2.17;;;13.20;99.90;;;;;;5019878;28;20491;-84
2022/01/02 02:16:56;;;;;;;5.07;1.90;;;13.10;99.90;;;;;;5021826;28;20471;-84
2022/01/02 02:19:23;;;;;;;3.40;1.83;;;13.10;99.90;;;;;;5038872;28;20461;-85
2022/01/02 02:21:51;;;;;;;5.40;1.90;;;13.10;99.90;;;;;;5038269;28;20484;-84
2022/01/02 02:24:18;;;;;;;5.00;1.97;;;13.20;99.90;;;;;;5040204;28;20451;-85
2022/01/02 02:26:47;;;;;;;3.83;1.93;;;13.10;99.90;;;;;;5056226;28;20721;-84
2022/01/02 02:29:14;;;;;;;3.93;2.20;;;13.10;99.90;;;;;;5059472;28;20474;-84
2022/01/02 02:31:42;;;;;;;5.40;2.13;;;13.10;99.90;;;;;;5058860;28;20454;-85
2022/01/02 02:34:08;;;;;;;5.40;2.10;;;13.00;99.90;;;;;;5059321;28;20454;-84
2022/01/02 02:36:35;;;;;;;7.17;2.27;;;13.00;99.90;;;;;;5059019;28;20521;-85
2022/01/02 02:39:04;;;;;;;7.60;2.20;;;13.00;99.90;;;;;;5053884;28;20510;-84
2022/01/02 02:41:34;;;;;;;3.00;2.03;;;13.00;99.90;;;;;;5044679;28;20483;-84
2022/01/02 02:44:06;;;;;;;3.63;2.03;;;13.00;99.90;;;;;;5048971;28;20467;-84
2022/01/02 02:49:11;;;;;;;4.07;1.80;;;12.90;99.90;;;;;;5084390;28;20479;-76
2022/01/02 02:51:49;;;;;;;4.93;2.00;;;12.90;99.90;;;;;;5078322;28;20500;-77
2022/01/02 02:54:27;;;;;;;6.60;2.57;;;12.90;99.90;;;;;;5074415;28;20456;-79
2022/01/02 02:56:56;;;;;;;4.47;1.73;;;12.90;99.90;;;;;;5074264;28;20454;-77
2022/01/02 02:59:33;;;;;;;9.77;2.73;;;13.00;99.90;;;;;;5075162;28;20549;-76
2022/01/02 03:02:01;;;;;;;7.43;3.27;;;13.00;99.90;;;;;;5073181;28;20514;-76
2022/01/02 03:04:28;;;;;;;7.17;2.10;;;13.00;99.90;;;;;;5069326;28;20464;-76
2022/01/02 03:06:57;;;;;;;5.63;1.93;;;13.00;99.90;;;;;;5081738;28;20479;-78
2022/01/02 03:09:37;;;;;;;3.90;1.83;;;13.00;99.90;;;;;;5074216;28;20441;-77
2022/01/02 03:12:05;;;;;;;5.57;2.10;;;13.10;99.90;;;;;;5073922;28;20496;-77
2022/01/02 03:14:32;;;;;;;4.90;2.87;;;13.10;99.90;;;;;;5074091;28;20462;-76
2022/01/02 03:16:59;;;;;;;5.23;2.50;;;13.00;99.90;;;;;;5074259;28;20857;-79
2022/01/02 03:19:26;;;;;;;8.87;2.20;;;13.10;99.90;;;;;;5073752;28;20461;-76
2022/01/02 03:21:53;;;;;;;3.93;2.17;;;13.10;99.90;;;;;;5072999;28;20501;-76
2022/01/02 03:24:19;;;;;;;4.10;2.40;;;13.00;99.90;;;;;;5068731;28;20453;-78
2022/01/02 03:26:48;;;;;;;6.53;2.33;;;13.10;99.90;;;;;;5073144;28;20448;-78
2022/01/02 03:29:14;;;;;;;5.23;1.90;;;13.10;99.90;;;;;;5073282;28;20794;-76
2022/01/02 03:31:41;;;;;;;6.20;2.20;;;13.10;99.90;;;;;;5073457;28;20451;-76
2022/01/02 03:34:08;;;;;;;5.67;2.30;;;13.00;99.90;;;;;;5073100;28;20470;-78
2022/01/02 03:36:35;;;;;;;9.00;3.10;;;12.90;99.90;;;;;;5073413;28;20447;-78
2022/01/02 03:39:02;;;;;;;6.77;2.23;;;12.90;99.90;;;;;;5073552;28;20459;-78
2022/01/02 03:41:28;;;;;;;5.97;2.53;;;12.90;99.90;;;;;;5079504;28;20482;-77
2022/01/02 03:43:59;;;;;;;4.30;2.27;;;12.90;99.90;;;;;;5091946;28;20453;-76
2022/01/02 03:46:25;;;;;;;5.40;2.37;;;12.90;99.90;;;;;;5073287;28;20454;-77
2022/01/02 03:48:52;;;;;;;5.23;2.43;;;12.80;99.90;;;;;;5072684;28;20486;-77
2022/01/02 03:51:19;;;;;;;3.43;2.50;;;12.80;99.90;;;;;;5072314;28;20451;-77
2022/01/02 03:53:47;;;;;;;4.40;2.27;;;12.80;99.90;;;;;;5073068;28;20454;-77
2022/01/02 03:56:14;;;;;;;6.57;2.43;;;12.70;99.90;;;;;;5072782;28;20456;-77
2022/01/02 03:58:40;;;;;;;3.93;2.10;;;12.70;99.90;;;;;;5072103;28;20468;-77
2022/01/02 04:01:08;;;;;;;10.63;3.47;;;12.60;99.90;;;;;;5072243;28;20493;-77
2022/01/02 04:03:35;;;;;;;4.73;2.43;;;12.50;99.90;;;;;;5072965;28;20454;-78
2022/01/02 04:06:02;;;;;;;5.40;2.30;;;12.50;99.90;;;;;;5073177;28;20465;-75
2022/01/02 04:08:29;;;;;;;12.90;3.93;;;12.40;99.90;;;;;;5072885;28;21002;-76
2022/01/02 04:10:56;;;;;;;14.10;3.10;;;12.30;99.90;;;;;;5074086;28;20449;-78
2022/01/02 04:13:22;;;;;;;11.73;2.80;;;12.30;99.90;;;;;;5074086;28;20478;-78
2022/01/02 04:15:49;;;;;;;6.07;3.20;;;12.20;99.90;;;;;;5073414;28;20456;-79
2022/01/02 04:18:25;;;;;;;4.57;3.00;;;12.20;99.90;;;;;;5073164;28;20475;-77
2022/01/02 04:20:52;;;;;;;5.73;2.20;;;12.20;99.90;;;;;;5072756;28;20491;-75
2022/01/02 04:23:19;;;;;;;12.03;2.63;;;12.10;99.90;;;;;;5073096;28;20460;-77
2022/01/02 04:25:46;;;;;;;6.73;2.60;;;12.10;99.90;;;;;;5072768;28;20474;-79
2022/01/02 04:28:12;;;;;;;8.13;3.27;;;12.10;99.90;;;;;;5072103;28;20476;-77
2022/01/02 04:30:39;;;;;;;6.97;2.67;;;12.10;99.90;;;;;;5071424;28;20456;-76
2022/01/02 04:33:13;;;;;;;6.13;2.60;;;12.10;99.90;;;;;;5072097;28;20449;-79
2022/01/02 04:35:41;;;;;;;9.93;3.47;;;12.10;99.90;;;;;;5072646;28;20517;-79
2022/01/02 04:38:08;;;;;;;10.13;3.00;;;12.10;99.90;;;;;;5102343;22;20493;-77
2022/01/02 04:40:37;;;;;;;6.77;2.90;;;12.20;99.90;;;;;;5032316;28;20476;-77
2022/01/02 04:43:04;;;;;;;8.40;3.00;;;12.10;99.90;;;;;;5032737;28;20964;-76
2022/01/02 04:45:31;;;;;;;7.93;2.60;;;12.20;99.90;;;;;;5032662;28;20480;-78
2022/01/02 04:47:59;;;;;;;7.00;2.93;;;12.20;99.90;;;;;;5086356;23;20531;-78
2022/01/02 04:50:29;;;;;;;8.87;2.97;;;12.20;99.90;;;;;;5052066;28;20475;-77
2022/01/02 04:52:57;;;;;;;9.67;3.07;;;12.10;99.90;;;;;;5052013;28;20922;-77
2022/01/02 04:55:24;;;;;;;10.83;3.33;;;12.20;99.90;;;;;;5052194;28;20447;-78
2022/01/02 04:57:51;;;;;;;5.97;3.20;;;12.10;99.90;;;;;;5051590;28;20475;-76
2022/01/02 05:00:18;;;;;;;6.90;2.50;;;12.10;99.90;;;;;;5052517;28;20526;-76
2022/01/02 05:02:45;;;;;;;9.67;3.77;;;12.00;99.90;;;;;;5052905;28;20471;-76
2022/01/02 05:05:11;;;;;;;5.20;2.87;;;12.00;99.90;;;;;;5068932;28;20477;-78
2022/01/02 05:07:38;;;;;;;6.93;3.13;;;12.10;99.90;;;;;;5053970;28;20470;-75
2022/01/02 05:10:07;;;;;;;5.63;3.40;;;12.10;99.90;;;;;;5051277;28;20462;-76
2022/01/02 05:12:34;;;;;;;8.63;3.10;;;12.10;99.90;;;;;;5051037;28;20463;-78
2022/01/02 05:15:01;;;;;;;10.40;3.00;;;12.00;99.90;;;;;;5052192;28;20485;-77
2022/01/02 05:17:27;;;;;;;11.20;3.10;;;12.00;99.90;;;;;;5051857;28;21023;-77
2022/01/02 05:19:54;;;;;;;6.77;3.10;;;12.00;99.90;;;;;;5051764;28;20452;-77
2022/01/02 05:22:21;;;;;;;11.83;3.70;;;12.00;99.90;;;;;;5050325;28;20482;-77
2022/01/02 05:24:48;;;;;;;8.13;3.03;;;12.00;99.90;;;;;;5051364;28;20453;-80
2022/01/02 05:27:20;;;;;;;7.80;2.73;;;12.10;99.90;;;;;;5051898;28;20536;-74
2022/01/02 05:29:46;;;;;;;8.27;3.63;;;12.00;99.90;;;;;;5051521;28;20828;-77
2022/01/02 05:32:13;;;;;;;5.43;3.13;;;12.10;99.90;;;;;;5050847;28;20564;-77
2022/01/02 05:34:43;;;;;;;6.90;2.83;;;12.00;99.90;;;;;;5051481;28;20462;-77
2022/01/02 05:37:09;;;;;;;8.17;3.60;;;12.00;99.90;;;;;;5051409;28;20559;-76
2022/01/02 05:39:36;;;;;;;11.00;3.40;;;12.00;99.90;;;;;;5052345;28;20462;-78
2022/01/02 05:42:04;;;;;;;5.50;2.87;;;12.00;99.90;;;;;;5051928;28;20482;-79
2022/01/02 05:44:32;;;;;;;4.97;2.70;;;12.00;99.90;;;;;;5053825;28;20465;-78
2022/01/02 05:46:59;;;;;;;7.17;3.37;;;12.10;99.90;;;;;;5052552;28;20471;-79
2022/01/02 05:49:26;;;;;;;6.60;2.50;;;12.10;99.90;;;;;;5053680;28;20440;-79
2022/01/02 05:51:53;;;;;;;6.33;2.57;;;12.10;99.90;;;;;;5055322;28;20452;-80
2022/01/02 05:54:20;;;;;;;6.40;2.63;;;12.10;99.90;;;;;;5057214;28;20451;-79
2022/01/02 05:56:46;;;;;;;8.97;3.50;;;12.10;99.90;;;;;;5057139;28;20993;-78
2022/01/02 05:59:13;;;;;;;6.63;2.80;;;12.10;99.90;;;;;;5057320;28;20457;-80
2022/01/02 06:01:41;;;;;;;9.30;3.17;;;12.10;99.90;;;;;;5056220;28;20487;-79
2022/01/02 06:04:08;;;;;;;8.13;2.90;;;12.10;99.90;;;;;;5057192;28;20463;-79
2022/01/02 06:06:35;;;;;;;6.60;2.80;;;12.10;99.90;;;;;;5058286;28;20553;-79
2022/01/02 06:09:02;;;;;;;7.33;2.93;;;12.10;99.90;;;;;;5060841;28;20463;-79
2022/01/02 06:11:29;;;;;;;6.77;3.50;;;12.00;99.90;;;;;;5058023;28;20899;-78
2022/01/02 06:13:56;;;;;;;6.30;3.13;;;12.10;99.90;;;;;;5040224;28;20452;-79
2022/01/02 06:16:22;;;;;;;10.27;3.30;;;12.10;99.90;;;;;;5046245;28;20466;-79
2022/01/02 06:18:52;;;;;;;7.57;2.77;;;12.10;99.90;;;;;;5058884;28;20473;-78
2022/01/02 06:21:18;;;;;;;9.13;3.63;;;12.10;99.90;;;;;;5056852;28;20488;-79
2022/01/02 06:23:45;;;;;;;7.80;3.10;;;12.00;99.90;;;;;;5058495;28;20447;-79
2022/01/02 06:26:12;;;;;;;6.93;2.67;;;12.00;99.90;;;;;;5058639;28;20455;-78
2022/01/02 06:28:39;;;;;;;4.67;3.10;;;12.00;99.90;;;;;;5057388;28;20556;-79
2022/01/02 06:31:06;;;;;;;5.97;3.63;;;12.00;99.90;;;;;;5055785;28;20456;-79
2022/01/02 06:33:32;;;;;;;8.10;3.90;;;11.90;99.90;;;;;;5057227;28;20465;-78
2022/01/02 06:36:00;;;;;;;9.77;4.23;;;11.90;99.90;;;;;;5057793;28;20462;-79
2022/01/02 06:38:28;;;;;;;11.17;4.30;;;11.90;99.90;;;;;;5058391;28;20482;-80
2022/01/02 06:40:55;;;;;;;12.20;3.70;;;11.90;99.90;;;;;;5056696;28;20548;-80
2022/01/02 06:43:22;;;;;;;6.10;2.57;;;11.90;99.90;;;;;;5038003;28;21019;-80
2022/01/02 06:45:49;;;;;;;6.20;3.60;;;11.80;99.90;;;;;;5043708;28;20459;-79
2022/01/02 06:48:16;;;;;;;10.87;3.70;;;11.90;99.90;;;;;;5058274;28;20482;-80
2022/01/02 06:50:43;;;;;;;8.13;4.30;;;11.80;99.90;;;;;;5060223;28;20468;-80
2022/01/02 06:53:11;;;;;;;7.47;3.40;;;11.80;99.90;;;;;;5062250;28;20454;-81
2022/01/02 06:55:37;;;;;;;8.17;3.27;;;11.90;99.90;;;;;;5062198;28;20455;-80
2022/01/02 06:58:05;;;;;;;8.90;3.70;;;11.80;99.90;;;;;;5061556;28;20464;-80
2022/01/02 07:00:32;;;;;;;7.17;3.00;;;11.90;99.90;;;;;;5063493;28;20853;-79
2022/01/02 07:02:59;;;;;;;11.03;4.00;;;11.90;99.90;;;;;;5063468;28;20555;-81
2022/01/02 07:05:26;;;;;;;5.63;3.60;;;11.90;99.90;;;;;;5065667;28;20526;-82
2022/01/02 07:07:53;;;;;;;4.90;3.00;;;11.80;99.90;;;;;;5064048;28;20474;-82
2022/01/02 07:10:21;;;;;;;10.33;3.20;;;11.80;99.90;;;;;;5062590;28;20884;-81
2022/01/02 07:12:48;;;;;;;10.83;3.43;;;11.80;99.90;;;;;;5059467;28;20461;-81
2022/01/02 07:15:15;;;;;;;11.20;3.20;;;11.80;99.90;;;;;;5059895;28;20448;-79
2022/01/02 07:17:43;;;;;;;9.50;3.97;;;11.80;99.90;;;;;;5059312;28;20473;-81
2022/01/02 07:20:13;;;;;;;8.93;3.60;;;11.80;99.90;;;;;;5059636;28;20458;-80
2022/01/02 07:22:42;;;;;;;8.17;3.40;;;11.80;99.90;;;;;;5059440;28;20514;-79
2022/01/02 07:25:10;;;;;;;6.07;3.67;;;11.80;99.90;;;;;;5063594;28;20450;-83
2022/01/02 07:27:38;;;;;;;8.80;4.03;;;11.80;99.90;;;;;;5063120;28;20502;-82
2022/01/02 07:30:06;;;;;;;5.53;3.43;;;11.80;99.90;;;;;;5061799;28;20455;-82
2022/01/02 07:32:33;;;;;;;14.83;4.00;;;11.80;99.90;;;;;;5062942;28;20985;-81
2022/01/02 07:35:00;;;;;;;7.73;3.40;;;11.80;99.90;;;;;;5063853;28;20460;-81
2022/01/02 07:37:27;;;;;;;6.03;3.30;;;11.80;99.90;;;;;;5062205;28;20480;-82
2022/01/02 07:39:54;;;;;;;7.40;4.27;;;11.80;99.90;;;;;;5062818;28;20459;-82
2022/01/02 07:42:21;;;;;;;9.40;4.03;;;11.80;99.90;;;;;;5061595;28;20537;-82
2022/01/02 07:44:49;;;;;;;7.47;3.23;;;11.80;99.90;;;;;;5061948;28;20456;-82
2022/01/02 07:47:15;;;;;;;6.50;4.03;;;11.80;99.90;;;;;;5060520;28;20877;-82
2022/01/02 07:49:42;;;;;;;5.43;3.43;;;11.80;99.90;;;;;;5060603;28;20469;-82
2022/01/02 07:52:09;;;;;;;8.40;3.80;;;11.80;99.90;;;;;;5062261;28;20453;-80
2022/01/02 07:54:37;;;;;;;5.70;3.30;;;11.90;99.90;;;;;;5064533;28;21105;-82
2022/01/02 07:57:05;;;;;;;7.40;2.77;;;11.90;99.90;;;;;;5062558;28;20509;-83
2022/01/02 07:59:32;;;;;;;6.63;3.70;;;11.90;99.90;;;;;;5054433;28;20985;-82
2022/01/02 08:02:00;;;;;;;7.60;3.73;;;11.90;99.90;;;;;;5060308;28;20480;-83
2022/01/02 08:04:27;;;;;;;5.73;3.30;;;11.90;99.90;;;;;;5063181;28;20847;-80
2022/01/02 08:06:54;;;;;;;4.63;2.83;;;11.90;99.90;;;;;;5062342;28;20456;-81
2022/01/02 08:09:21;;;;;;;8.63;3.53;;;11.90;99.90;;;;;;5063004;28;20967;-80
2022/01/02 08:11:47;;;;;;;4.27;2.90;;;11.90;99.90;;;;;;5061754;28;20457;-81
2022/01/02 08:14:15;;;;;;;6.03;3.50;;;11.90;99.90;;;;;;5063089;28;20451;-80
2022/01/02 08:16:42;;;;;;;6.27;3.37;;;11.90;99.90;;;;;;5063561;28;21014;-81
2022/01/02 08:19:10;;;;;;;8.07;3.83;;;11.90;99.90;;;;;;5063522;28;20455;-81
2022/01/02 08:21:37;;;;;;;9.93;3.67;;;11.90;99.90;;;;;;5062049;28;20450;-81
2022/01/02 08:24:04;;;;;;;5.30;2.40;;;11.90;99.90;;;;;;5063113;28;20517;-81
2022/01/02 08:26:31;;;;;;;7.70;2.83;;;12.00;99.90;;;;;;5063770;28;20449;-79
2022/01/02 08:29:00;;;;;;;6.33;2.80;;;12.00;99.90;;;;;;5057965;28;20479;-81
2022/01/02 08:31:27;;;;;;;9.93;3.77;;;12.00;99.90;;;;;;5056897;28;20546;-79
2022/01/02 08:33:53;;;;;;;6.60;3.00;;;12.00;99.90;;;;;;5061157;28;20455;-80
2022/01/02 08:36:22;;;;;;;6.40;2.40;;;12.00;99.90;;;;;;5062798;28;20458;-79
2022/01/02 08:38:48;;;;;;;4.10;2.37;;;12.10;99.90;;;;;;5061640;28;20471;-81
2022/01/02 08:41:15;;;;;;;4.83;2.80;;;12.00;99.90;;;;;;5060848;28;20452;-82
2022/01/02 08:43:42;;;;;;;6.50;2.97;;;12.10;99.90;;;;;;5058698;28;20489;-80
2022/01/02 08:46:10;;;;;;;6.20;3.10;;;12.10;99.90;;;;;;5061143;28;20447;-79
2022/01/02 08:48:37;;;;;;;6.33;3.17;;;12.10;99.90;;;;;;5055370;28;20551;-81
2022/01/02 08:51:04;;;;;;;3.33;2.27;;;12.10;99.90;;;;;;5054140;28;20451;-79
2022/01/02 08:53:32;;;;;;;7.37;3.30;;;12.00;99.90;;;;;;5054154;28;20451;-79
2022/01/02 08:55:59;;;;;;;5.77;3.00;;;12.00;99.90;;;;;;5056195;28;20454;-79
2022/01/02 08:58:29;;;;;;;5.17;2.60;;;11.90;99.90;;;;;;5054930;28;20561;-79
2022/01/02 09:00:56;;;;;;;4.50;2.20;;;11.90;99.90;;;;;;5054800;28;20448;-80
2022/01/02 09:03:23;;;;;;;3.33;2.47;;;11.90;99.90;;;;;;5053630;28;20900;-80
2022/01/02 09:05:50;;;;;;;4.10;1.83;;;11.90;99.90;;;;;;5055551;28;20829;-79
2022/01/02 09:08:17;;;;;;;3.80;2.23;;;12.00;99.90;;;;;;5055456;28;20476;-80
2022/01/02 09:10:45;;;;;;;6.30;2.73;;;12.20;99.90;;;;;;5054961;28;20861;-81
2022/01/02 09:13:12;;;;;;;6.77;2.70;;;12.20;99.90;;;;;;5056426;28;20451;-80
2022/01/02 09:15:39;;;;;;;3.30;2.40;;;12.20;99.90;;;;;;5056138;28;20459;-80
2022/01/02 09:18:06;;;;;;;4.50;2.60;;;12.20;99.90;;;;;;5055863;28;20470;-81
2022/01/02 09:20:33;;;;;;;5.63;2.57;;;12.10;99.90;;;;;;5054747;28;20457;-81
2022/01/02 09:23:00;;;;;;;4.87;2.00;;;12.10;99.90;;;;;;5056032;28;20491;-81
2022/01/02 09:25:27;;;;;;;4.83;2.20;;;12.10;99.90;;;;;;5058461;28;20443;-79
2022/01/02 09:27:55;;;;;;;5.83;2.40;;;12.10;99.90;;;;;;5060486;28;20470;-81
2022/01/02 09:30:22;;;;;;;6.90;3.03;;;12.10;99.90;;;;;;5058552;28;20451;-81
2022/01/02 09:32:49;;;;;;;4.07;2.70;;;12.10;99.90;;;;;;5059946;28;20457;-81
2022/01/02 09:35:16;;;;;;;5.53;2.50;;;12.10;99.90;;;;;;5061028;28;20461;-81
2022/01/02 09:37:43;;;;;;;4.50;2.27;;;12.10;99.90;;;;;;5061446;28;20470;-81
2022/01/02 09:40:10;;;;;;;5.57;2.30;;;12.20;99.90;;;;;;5059418;28;20466;-81
2022/01/02 09:42:39;;;;;;;2.80;1.90;;;12.20;99.90;;;;;;5060971;28;21028;-80
2022/01/02 09:45:09;;;;;;;3.70;1.90;;;12.30;99.90;;;;;;5059454;28;20463;-82
2022/01/02 09:47:36;;;;;;;2.43;1.53;;;12.50;99.90;;;;;;5059686;28;21034;-80
2022/01/02 09:50:06;;;;;;;4.53;1.90;;;12.70;99.90;;;;;;5058037;28;20464;-81
2022/01/02 09:52:32;;;;;;;3.80;1.90;;;12.80;99.90;;;;;;5059438;28;20466;-82
2022/01/02 09:55:00;;;;;;;5.03;1.83;;;12.90;99.90;;;;;;5059341;28;20535;-81
2022/01/02 09:57:26;;;;;;;4.57;2.07;;;13.00;99.90;;;;;;5059197;28;20461;-81
2022/01/02 09:59:55;;;;;;;3.40;1.90;;;13.00;99.90;;;;;;5059331;28;20439;-82
2022/01/02 10:02:24;;;;;;;5.27;1.87;;;13.10;99.90;;;;;;5055100;28;20525;-80
2022/01/02 10:05:01;;;;;;;3.40;1.77;;;13.20;99.90;;;;;;5059252;28;20468;-80
2022/01/02 10:07:30;;;;;;;3.00;1.90;;;13.20;99.90;;;;;;5057995;28;20474;-81
2022/01/02 10:09:57;;;;;;;2.67;1.67;;;13.20;99.90;;;;;;5057707;28;20502;-82
2022/01/02 10:12:26;;;;;;;5.23;2.10;;;13.20;99.90;;;;;;5054897;28;20980;-79
2022/01/02 10:15:18;;;;;;;2.77;1.70;;;13.20;99.90;;;;;;5052013;28;20487;-78
2022/01/02 10:18:01;;;;;;;3.43;2.00;;;13.20;99.90;;;;;;5052875;28;20469;-79
2022/01/02 10:20:30;;;;;;;3.53;2.03;;;13.30;99.90;;;;;;5051159;28;20458;-79
2022/01/02 10:23:11;;;;;;;4.77;2.37;;;13.30;99.90;;;;;;5051458;28;20942;-77
2022/01/02 10:25:39;;;;;;;5.43;2.60;;;13.20;99.90;;;;;;5051080;28;20537;-77
2022/01/02 10:28:19;;;;;;;4.33;2.43;;;13.30;99.90;;;;;;5044534;28;20478;-78
2022/01/02 10:30:48;;;;;;;3.27;2.03;;;13.10;99.90;;;;;;5047693;28;20479;-77
2022/01/02 10:33:16;;;;;;;7.80;2.43;;;12.80;99.90;;;;;;5055210;28;20804;-78
2022/01/02 10:35:43;;;;;;;5.57;3.33;;;12.60;99.90;;;;;;5053841;28;20448;-78
2022/01/02 10:38:16;;;;;;;2.87;1.87;;;12.50;99.90;;;;;;5047430;28;20493;-78
2022/01/02 10:40:44;;;;;;;5.50;2.30;;;12.40;99.90;;;;;;5050834;28;20440;-78
2022/01/02 10:43:22;;;;;;;6.10;2.80;;;12.40;99.90;;;;;;5055091;28;20514;-78
2022/01/02 10:45:50;;;;;;;5.00;2.77;;;12.60;99.90;;;;;;5053641;28;20440;-77
2022/01/02 10:48:31;;;;;;;4.70;3.20;;;12.70;99.90;;;;;;5055697;28;20933;-79
2022/01/02 10:51:03;;;;;;;5.30;2.97;;;12.70;99.90;;;;;;5054511;28;20450;-77
2022/01/02 10:53:30;;;;;;;4.80;3.30;;;12.80;99.90;;;;;;5053311;28;20569;-79
2022/01/02 10:55:56;;;;;;;4.30;2.30;;;12.90;99.90;;;;;;5053612;28;20447;-78
2022/01/02 10:58:25;;;;;;;5.50;2.90;;;13.00;99.90;;;;;;5055617;28;20558;-78
2022/01/02 11:00:52;;;;;;;4.40;2.77;;;13.20;99.90;;;;;;5052363;28;20474;-77
2022/01/02 11:03:24;;;;;;;4.80;2.60;;;13.40;99.90;;;;;;5051465;28;21019;-77
2022/01/02 11:05:57;;;;;;;7.23;3.40;;;13.70;99.90;;;;;;5051220;28;20454;-78
2022/01/02 11:08:27;;;;;;;8.13;2.53;;;13.60;99.90;;;;;;5048218;28;20487;-78
2022/01/02 11:10:56;;;;;;;3.90;2.33;;;13.60;99.90;;;;;;5051679;28;20480;-78
2022/01/02 11:13:23;;;;;;;5.03;2.40;;;13.60;99.90;;;;;;5052585;28;20484;-78
2022/01/02 11:15:50;;;;;;;6.07;2.97;;;13.70;99.90;;;;;;5052790;28;20749;-77
2022/01/02 11:18:17;;;;;;;4.73;2.80;;;13.70;99.90;;;;;;5052616;28;20489;-78
2022/01/02 11:20:46;;;;;;;5.83;3.00;;;13.90;99.90;;;;;;5050766;28;20826;-77
2022/01/02 11:23:18;;;;;;;4.30;2.60;;;14.00;99.90;;;;;;5050886;28;21081;-78
2022/01/02 11:25:50;;;;;;;5.93;3.00;;;14.10;99.90;;;;;;5056631;28;20456;-78
2022/01/02 11:28:30;;;;;;;5.93;3.20;;;14.20;99.90;;;;;;5052914;28;20482;-78
2022/01/02 11:30:58;;;;;;;5.83;3.30;;;14.40;99.90;;;;;;5051745;28;20446;-78
2022/01/02 11:33:31;;;;;;;5.27;3.17;;;14.80;99.90;;;;;;5052618;28;20456;-79
2022/01/02 11:36:20;;;;;;;5.70;3.07;;;15.90;99.90;;;;;;5051981;28;20459;-80
2022/01/02 11:38:58;;;;;;;6.57;2.80;;;17.50;99.90;;;;;;5053974;28;20472;-79
2022/01/02 11:41:35;;;;;;;6.80;3.10;;;16.20;99.90;;;;;;5050753;28;20871;-79
2022/01/02 11:44:02;;;;;;;7.13;3.50;;;16.10;99.90;;;;;;5051512;28;20482;-79
2022/01/02 11:46:30;;;;;;;5.10;3.57;;;15.50;99.90;;;;;;5054208;28;20539;-79
2022/01/02 11:49:28;;;;;;;6.13;3.40;;;15.30;99.90;;;;;;5055612;28;20479;-81
2022/01/02 11:52:23;;;;;;;8.33;3.20;;;14.90;99.90;;;;;;5053074;28;20501;-79
2022/01/02 11:54:52;;;;;;;6.00;3.20;;;14.80;99.90;;;;;;5056072;28;20481;-80
2022/01/02 11:57:52;;;;;;;7.60;3.70;;;14.80;99.90;;;;;;5054233;28;20477;-78
2022/01/02 12:00:44;;;;;;;5.03;3.20;;;14.60;99.90;;;;;;5051924;28;20445;-79
2022/01/02 12:03:49;;;;;;;6.10;3.23;;;14.40;99.90;;;;;;5054110;28;20486;-79
2022/01/02 12:06:21;;;;;;;5.47;3.00;;;14.90;99.90;;;;;;5055263;28;20546;-79
2022/01/02 12:08:50;;;;;;;5.07;3.07;;;15.40;99.90;;;;;;5051551;28;20472;-79
2022/01/02 12:11:43;;;;;;;5.80;2.93;;;15.20;99.90;;;;;;5054528;28;20506;-79
2022/01/02 12:14:12;;;;;;;6.20;2.93;;;14.90;99.90;;;;;;5052609;28;20511;-79
2022/01/02 12:16:40;;;;;;;7.77;2.93;;;14.60;99.90;;;;;;5052128;28;20538;-79
2022/01/02 12:19:09;;;;;;;5.07;3.03;;;14.50;99.90;;;;;;5056168;28;20444;-79
2022/01/02 12:21:37;;;;;;;8.03;3.30;;;14.40;99.90;;;;;;5050826;28;20568;-79
2022/01/02 12:24:12;;;;;;;7.77;3.27;;;14.30;99.90;;;;;;5054930;28;20523;-79
2022/01/02 12:26:39;;;;;;;6.60;3.17;;;14.30;99.90;;;;;;5050127;28;20450;-78
2022/01/02 12:29:13;;;;;;;8.10;2.90;;;14.20;99.90;;;;;;5051881;28;21813;-78
2022/01/02 12:31:42;;;;;;;10.53;2.90;;;14.00;99.90;;;;;;5053436;28;20452;-79
2022/01/02 12:34:14;;;;;;;6.67;2.70;;;14.00;99.90;;;;;;5054618;28;20447;-79
2022/01/02 12:36:43;;;;;;;7.20;3.27;;;14.00;99.90;;;;;;5054727;28;20537;-79
2022/01/02 12:39:14;;;;;;;8.23;3.23;;;13.70;99.90;;;;;;5055526;28;20458;-79
2022/01/02 12:41:43;;;;;;;6.83;2.80;;;13.70;99.90;;;;;;5052938;28;20861;-80
2022/01/02 12:44:15;;;;;;;5.20;2.70;;;13.70;99.90;;;;;;5053897;28;20486;-80
2022/01/02 12:46:43;;;;;;;5.60;3.17;;;13.70;99.90;;;;;;5054461;28;20972;-79
2022/01/02 12:49:12;;;;;;;5.97;2.63;;;13.60;99.90;;;;;;5056237;28;20448;-80
2022/01/02 12:51:41;;;;;;;6.20;2.83;;;13.60;99.90;;;;;;5054364;28;20464;-79
2022/01/02 12:54:09;;;;;;;8.30;2.83;;;13.60;99.90;;;;;;5055986;28;20452;-79
2022/01/02 12:56:40;;;;;;;6.03;3.20;;;13.60;99.90;;;;;;5050451;28;20455;-80
2022/01/02 12:59:22;;;;;;;4.80;2.80;;;13.60;99.90;;;;;;5054437;28;20527;-80